Lake Levels Lake Levels   »   United States   »   Texas
LAKES RIVERS MARINAS NEWS HOUSES EVENTS MAPS
1,681 Lakes:
Lake Store

Lake Levels in Texas, United States

Lake Name Current
Level
Full Pool +/-
Full Pool
Reading
Date - Time
Alan Henry (TX) 2,214.95 2,224.00 -9.05 12/18/2017  12:30 AM
Amistad (TX) 1,093.51 1,117.00 -23.49 12/18/2017  5:15 AM
Amon Carter (TX) 919.84 920.00 -0.16 12/18/2017  12:00 AM
Aquilla (TX) 535.03 537.50 -2.47 12/18/2017  12:30 AM
Arlington (TX) 544.20 550.00 -5.80 12/18/2017  5:15 AM
Arrowhead (TX) 923.69 926.00 -2.31 12/18/2017  12:00 AM
Athens (TX) 439.24 440.00 -0.76 12/18/2017  2:30 AM
Austin (TX) 492.10 492.80 -0.70 12/18/2017  5:00 AM
Bardwell (TX) 418.92 421.00 -2.08 12/18/2017  5:30 AM
Belton (TX) 591.18 594.00 -2.82 12/18/2017  5:00 AM
Benbrook (TX) 690.69 694.00 -3.31 12/18/2017  5:00 AM
Bob Sandlin (TX) 336.28 337.50 -1.22 12/17/2017  10:29 AM
Bonham (TX) 563.31 565.00 -1.69 12/18/2017  12:00 AM
Brady Creek (TX) 1,735.23 1,743.00 -7.77 12/18/2017  5:45 AM
Bridgeport (TX) 832.20 836.00 -3.80 12/18/2017  5:00 AM
Brownwood (TX) 1,421.41 1,425.00 -3.59 12/18/2017  5:30 AM
Buchanan (TX) 1,015.50 1,020.50 -5.00 12/17/2017  10:05 AM
Buffalo Creek (TX) 1,045.40 1,049.00 -3.60 12/17/2017  1:00 AM
Caddo (LA TX) 168.60 168.50 0.10 12/17/2017  7:00 AM
Canyon (TX) 905.69 909.00 -3.31 12/18/2017  12:15 AM
Cedar Creek (TX) 319.77 322.00 -2.23 12/18/2017  12:45 AM
Champion Creek (TX) 2,064.58 2,083.00 -18.42 12/17/2017  8:34 AM
Cherokee (TX) 279.15 280.00 -0.85 12/18/2017  1:45 AM
Choke Canyon (TX) 196.22 220.50 -24.28 12/17/2017  7:30 AM
Cisco (TX) 1,518.01 1,520.00 -1.99 12/18/2017  10:30 AM
Coleman (TX) 1,715.12 1,718.00 -2.88 12/18/2017  2:30 AM
Coleto Creek (TX) 97.03 98.28 -1.25 12/18/2017  5:00 AM
Colorado City (TX) 2,054.96 2,070.20 -15.24 12/17/2017  8:34 AM
Conroe (TX) 200.67 201.00 -0.33 12/18/2017  12:45 AM
Corpus Christi (TX) 93.50 94.00 -0.50 12/17/2017  8:38 AM
E. V. Spence (TX) 1,847.04 1,898.00 -50.96 12/18/2017  12:00 AM
Eagle Mountain (TX) 647.49 649.00 -1.51 12/18/2017  1:00 AM
Falcon (TX) 284.13 301.20 -17.07 12/18/2017  5:15 AM
Fork (TX) 401.55 403.00 -1.45 12/18/2017  5:30 AM
Georgetown (TX) 779.91 791.00 -11.09 12/18/2017  4:00 AM
Graham (TX) 1,074.13 1,075.00 -0.87 12/18/2017  5:00 AM
Granbury (TX) 692.03 693.00 -0.97 12/18/2017  5:30 AM
Granger (TX) 504.50 504.00 0.50 12/18/2017  5:00 AM
Grapevine (TX) 534.09 535.00 -0.91 12/18/2017  5:45 AM
Hords Creek (TX) 1,892.70 1,900.00 -7.30 12/18/2017  12:30 AM
Houston (TX) 42.45 41.70 0.75 12/18/2017  5:30 AM
Hubbard Creek (TX) 1,180.28 1,183.00 -2.72 12/18/2017  5:15 AM
Hubert M Moss (TX) 713.01 715.00 -1.99 12/18/2017  4:15 AM
Inks (TX) 887.12 886.90 0.22 12/18/2017  12:00 AM
Jacksonville (TX) 421.60 422.00 -0.40 12/18/2017  12:00 AM
JB Thomas (TX) 2,240.76 2,258.00 -17.24 12/18/2017  5:45 AM
Jim Chapman (TX) 437.86 440.00 -2.14 12/17/2017  10:29 AM
Joe Pool (TX) 520.76 522.00 -1.24 12/18/2017  5:00 AM
Kemp (TX) 1,142.59 1,144.00 -1.41 12/18/2017  4:15 AM
Kickapoo (TX) 1,042.68 1,045.00 -2.32 12/18/2017  5:00 AM
Lake O' the Pines (TX) 228.25 228.50 -0.25 12/17/2017  10:29 AM
Lavon (TX) 488.61 492.00 -3.39 12/18/2017  12:00 AM
Leon (TX) 1,372.34 12/18/2017  5:45 AM
Lewisville (TX) 519.85 522.00 -2.15 12/18/2017  5:30 AM
Limestone (TX) 359.00 363.00 -4.00 12/18/2017  3:45 AM
Livingston (TX) 130.17 131.00 -0.83 12/18/2017  5:15 AM
Lyndon B. Johnson (TX) 824.62 825.00 -0.38 12/17/2017  10:05 AM
MacKenzie (TX) 3,026.05 3,100.00 -73.95 12/18/2017  1:30 AM
Marble Falls (TX) 736.34 737.00 -0.66 12/17/2017  10:05 AM
Martin Creek (TX) 302.63 306.00 -3.37 12/18/2017  3:30 AM
Medina (TX) 1,049.05 1,062.00 -12.95 12/18/2017  4:00 AM
Meredith (TX) 2,888.91 2,941.00 -52.09 12/18/2017  5:30 AM
Mexia (TX) 446.52 448.30 -1.78 12/18/2017  5:15 AM
Millers Creek (TX) 1,333.14 1,334.00 -0.86 12/18/2017  3:00 AM
Mineral Wells (TX) 861.61 863.00 -1.39 12/18/2017  8:30 AM
Moss Creek (TX) 2,332.79 2,337.00 -4.21 12/18/2017  5:30 AM
Murvaul (TX) 263.98 265.50 -1.52 12/17/2017  10:29 AM
Nacogdoches (TX) 277.25 279.00 -1.75 12/17/2017  10:29 AM
Navarro Mills (TX) 422.51 424.50 -1.99 12/18/2017  12:00 AM
Nocona (TX) 825.76 827.00 -1.24 12/18/2017  12:00 AM
O. C. Fisher (TX) 1,870.18 1,908.00 -37.82 12/18/2017  2:00 AM
O.H. Ivie (TX) 1,513.89 1,551.50 -37.61 12/18/2017  1:15 AM
Oak Creek (TX) 1,989.35 2,000.00 -10.65 12/18/2017  12:00 AM
Palestine (TX) 344.07 345.00 -0.93 12/17/2017  10:29 AM
Palo Pinto (TX) 864.86 867.00 -2.14 12/18/2017  12:15 AM
Pat Cleburne (TX) 730.67 733.60 -2.93 12/18/2017  3:00 AM
Pat Mayse (TX) 450.08 451.00 -0.92 12/17/2017  10:29 AM
Phantom Hill (TX) 1,634.25 1,635.90 -1.65 12/18/2017  5:30 AM
Possum Kingdom (TX) 997.73 1,000.00 -2.27 12/17/2017  8:46 AM
Proctor (TX) 1,159.05 1,162.00 -2.95 12/18/2017  5:30 AM
Ray Hubbard (TX) 433.41 435.50 -2.09 12/18/2017  12:30 AM
Ray Roberts (TX) 631.18 632.50 -1.32 12/18/2017  12:15 AM
Red Bluff (TX) 2,821.17 2,827.13 -5.96 12/18/2017  5:15 AM
Richland Chambers (TX) 312.39 315.00 -2.61 12/17/2017  8:46 AM
Sam Rayburn (TX) 161.54 164.40 -2.86 12/18/2017  12:00 AM
Somerville (TX) 238.31 238.00 0.31 12/18/2017  5:00 AM
Squaw Creek (TX) 775.30 775.00 0.30 12/18/2017  12:00 AM
Stamford (TX) 1,416.31 1,417.00 -0.69 12/18/2017  5:30 AM
Steinhagen Reservoir (TX) 82.31 82.40 -0.09 12/18/2017  5:00 AM
Stillhouse Hollow (TX) 618.86 622.00 -3.14 12/18/2017  12:00 AM
Tawakoni (TX) 436.21 437.50 -1.29 12/18/2017  5:30 AM
Texana (TX) 42.10 44.00 -1.90 12/18/2017  12:00 AM
Texoma (TX) 618.63 617.00 1.63 12/18/2017  3:00 AM
Toledo Bend (TX LA) 167.32 172.00 -4.68 12/18/2017  5:45 AM
Travis (TX) 669.41 681.00 -11.59 12/18/2017  4:00 AM
Twin Buttes (TX) 1,898.59 1,940.00 -41.41 12/18/2017  12:00 AM
Tyler (TX) 374.65 375.50 -0.85 12/17/2017  10:29 AM
Waco (TX) 458.56 462.00 -3.44 12/18/2017  12:15 AM
Waxahachie (TX) 528.09 12/18/2017  12:00 AM
White River (TX) 2,350.84 12/18/2017  12:15 AM
Whitney (TX) 528.34 533.00 -4.66 12/18/2017  12:15 AM
Worth (TX) 592.30 594.00 -1.70 12/18/2017  2:00 AM
Wright Patman (TX) 223.47 220.60 2.87 12/17/2017  10:29 AM


CURRENT DAILY STREAMFLOW CONDITIONS
High
90th percentile
75th - 89th percentile
25th - 74th percentile
10th - 24th percentile
10th percentile
Low
Not ranked

The colored dots on this map depict streamflow conditions as a percentile, which is computed from the period of record for the current day of the year. Only stations with at least 30 years of record are used. The gray circles indicate other stations that were not ranked in percentiles either because they have fewer than 30 years of record or because they report parameters other than streamflow. Some stations, for example, measure stage only.
U.S. Daily Streamflow Conditions



U.S. Drought Monitor